sensor_id;sensor_type;location;lat;lon;timestamp;temperature;humidity
52963;DHT22;38827;53.024;6.596;2023-02-11T00:00:47;7.20;76.10
52963;DHT22;38827;53.024;6.596;2023-02-11T00:03:15;7.20;76.20
52963;DHT22;38827;53.024;6.596;2023-02-11T00:09:12;7.20;76.20
52963;DHT22;38827;53.024;6.596;2023-02-11T00:11:41;7.20;76.40
52963;DHT22;38827;53.024;6.596;2023-02-11T00:18:20;7.20;76.70
52963;DHT22;38827;53.024;6.596;2023-02-11T00:27:09;7.20;76.70
52963;DHT22;38827;53.024;6.596;2023-02-11T00:44:25;7.20;77.50
52963;DHT22;38827;53.024;6.596;2023-02-11T00:47:06;7.20;77.20
52963;DHT22;38827;53.024;6.596;2023-02-11T00:53:34;7.20;77.40
52963;DHT22;38827;53.024;6.596;2023-02-11T01:03:23;7.10;77.90
52963;DHT22;38827;53.024;6.596;2023-02-11T01:12:26;6.90;77.90
52963;DHT22;38827;53.024;6.596;2023-02-11T01:14:58;6.80;78.40
52963;DHT22;38827;53.024;6.596;2023-02-11T01:17:50;6.80;78.40
52963;DHT22;38827;53.024;6.596;2023-02-11T01:20:35;6.80;78.70
52963;DHT22;38827;53.024;6.596;2023-02-11T01:39:35;6.80;79.00
52963;DHT22;38827;53.024;6.596;2023-02-11T01:48:52;6.60;79.70
52963;DHT22;38827;53.024;6.596;2023-02-11T02:03:58;6.50;80.40
52963;DHT22;38827;53.024;6.596;2023-02-11T02:09:42;6.50;80.60
52963;DHT22;38827;53.024;6.596;2023-02-11T02:12:39;6.50;80.60
52963;DHT22;38827;53.024;6.596;2023-02-11T03:12:43;6.90;82.40
52963;DHT22;38827;53.024;6.596;2023-02-11T04:46:18;7.10;84.50
52963;DHT22;38827;53.024;6.596;2023-02-11T04:49:12;7.10;84.50
52963;DHT22;38827;53.024;6.596;2023-02-11T04:52:07;7.10;84.40
52963;DHT22;38827;53.024;6.596;2023-02-11T04:54:53;7.10;84.40
52963;DHT22;38827;53.024;6.596;2023-02-11T04:57:40;7.10;84.30
52963;DHT22;38827;53.024;6.596;2023-02-11T05:00:22;7.10;84.50
52963;DHT22;38827;53.024;6.596;2023-02-11T05:03:06;7.10;84.30
52963;DHT22;38827;53.024;6.596;2023-02-11T05:06:08;7.10;84.50
52963;DHT22;38827;53.024;6.596;2023-02-11T05:09:02;7.10;84.50
52963;DHT22;38827;53.024;6.596;2023-02-11T05:11:42;7.10;84.50
52963;DHT22;38827;53.024;6.596;2023-02-11T05:14:12;7.10;84.60
52963;DHT22;38827;53.024;6.596;2023-02-11T05:17:09;7.10;84.50
52963;DHT22;38827;53.024;6.596;2023-02-11T05:23:35;7.10;84.60
52963;DHT22;38827;53.024;6.596;2023-02-11T05:29:58;7.10;84.80
52963;DHT22;38827;53.024;6.596;2023-02-11T05:36:37;7.00;84.70
52963;DHT22;38827;53.024;6.596;2023-02-11T05:43:17;7.00;84.90
52963;DHT22;38827;53.024;6.596;2023-02-11T06:02:56;7.00;85.30
52963;DHT22;38827;53.024;6.596;2023-02-11T06:16:04;7.00;85.20
52963;DHT22;38827;53.024;6.596;2023-02-11T06:18:57;7.00;85.20
52963;DHT22;38827;53.024;6.596;2023-02-11T06:21:56;7.00;85.20
52963;DHT22;38827;53.024;6.596;2023-02-11T06:24:22;7.00;85.10
52963;DHT22;38827;53.024;6.596;2023-02-11T06:27:08;7.00;85.40
52963;DHT22;38827;53.024;6.596;2023-02-11T06:36:53;7.00;86.20
52963;DHT22;38827;53.024;6.596;2023-02-11T06:39:34;7.00;85.60
52963;DHT22;38827;53.024;6.596;2023-02-11T06:45:40;7.00;85.50
52963;DHT22;38827;53.024;6.596;2023-02-11T06:48:10;7.00;85.70
52963;DHT22;38827;53.024;6.596;2023-02-11T06:55:00;7.00;85.60
52963;DHT22;38827;53.024;6.596;2023-02-11T06:57:38;7.00;85.70
52963;DHT22;38827;53.024;6.596;2023-02-11T07:00:10;7.00;85.70
52963;DHT22;38827;53.024;6.596;2023-02-11T07:02:39;7.00;85.70
52963;DHT22;38827;53.024;6.596;2023-02-11T07:05:41;7.00;85.80
52963;DHT22;38827;53.024;6.596;2023-02-11T07:09:07;7.00;85.90
52963;DHT22;38827;53.024;6.596;2023-02-11T07:11:47;7.00;86.00
52963;DHT22;38827;53.024;6.596;2023-02-11T07:14:47;7.00;85.80
52963;DHT22;38827;53.024;6.596;2023-02-11T07:23:59;7.00;86.00
52963;DHT22;38827;53.024;6.596;2023-02-11T07:26:25;7.00;86.10
52963;DHT22;38827;53.024;6.596;2023-02-11T07:28:52;7.00;86.10
52963;DHT22;38827;53.024;6.596;2023-02-11T07:34:39;7.10;86.00
52963;DHT22;38827;53.024;6.596;2023-02-11T07:37:05;7.10;86.20
52963;DHT22;38827;53.024;6.596;2023-02-11T07:39:31;7.10;86.00
52963;DHT22;38827;53.024;6.596;2023-02-11T07:41:56;7.10;86.10
52963;DHT22;38827;53.024;6.596;2023-02-11T07:44:22;7.20;86.20
52963;DHT22;38827;53.024;6.596;2023-02-11T07:46:53;7.20;86.20
52963;DHT22;38827;53.024;6.596;2023-02-11T07:49:19;7.20;86.10
52963;DHT22;38827;53.024;6.596;2023-02-11T07:51:47;7.20;86.20
52963;DHT22;38827;53.024;6.596;2023-02-11T07:54:15;7.30;86.00
52963;DHT22;38827;53.024;6.596;2023-02-11T07:56:46;7.30;86.10
52963;DHT22;38827;53.024;6.596;2023-02-11T07:59:29;7.30;86.10
52963;DHT22;38827;53.024;6.596;2023-02-11T08:02:14;7.30;86.00
52963;DHT22;38827;53.024;6.596;2023-02-11T08:04:48;7.40;85.90
52963;DHT22;38827;53.024;6.596;2023-02-11T08:07:16;7.40;85.90
52963;DHT22;38827;53.024;6.596;2023-02-11T08:09:45;7.40;85.90
52963;DHT22;38827;53.024;6.596;2023-02-11T08:12:11;7.40;85.80
52963;DHT22;38827;53.024;6.596;2023-02-11T08:14:40;7.40;85.90
52963;DHT22;38827;53.024;6.596;2023-02-11T08:17:37;7.40;85.80
52963;DHT22;38827;53.024;6.596;2023-02-11T08:26:38;7.50;85.60
52963;DHT22;38827;53.024;6.596;2023-02-11T08:29:35;7.50;85.60
52963;DHT22;38827;53.024;6.596;2023-02-11T08:35:35;7.60;85.60
52963;DHT22;38827;53.024;6.596;2023-02-11T08:38:33;7.60;85.30
52963;DHT22;38827;53.024;6.596;2023-02-11T08:41:11;7.60;85.30
52963;DHT22;38827;53.024;6.596;2023-02-11T08:53:52;7.80;84.90
52963;DHT22;38827;53.024;6.596;2023-02-11T09:16:15;8.20;83.80
52963;DHT22;38827;53.024;6.596;2023-02-11T09:18:42;8.20;83.80
52963;DHT22;38827;53.024;6.596;2023-02-11T09:21:10;8.30;83.70
52963;DHT22;38827;53.024;6.596;2023-02-11T09:23:35;8.30;83.60
52963;DHT22;38827;53.024;6.596;2023-02-11T09:26:08;8.30;83.60
52963;DHT22;38827;53.024;6.596;2023-02-11T09:28:34;8.40;83.20
52963;DHT22;38827;53.024;6.596;2023-02-11T09:31:08;8.40;83.10
52963;DHT22;38827;53.024;6.596;2023-02-11T09:33:34;8.50;82.90
52963;DHT22;38827;53.024;6.596;2023-02-11T09:36:01;8.50;82.70
52963;DHT22;38827;53.024;6.596;2023-02-11T10:29:40;9.30;80.20
52963;DHT22;38827;53.024;6.596;2023-02-11T10:36:35;9.30;79.90
52963;DHT22;38827;53.024;6.596;2023-02-11T10:42:34;9.30;80.10
52963;DHT22;38827;53.024;6.596;2023-02-11T10:45:29;9.30;80.00
52963;DHT22;38827;53.024;6.596;2023-02-11T10:47:51;9.30;80.00
52963;DHT22;38827;53.024;6.596;2023-02-11T10:54:09;9.40;79.80
52963;DHT22;38827;53.024;6.596;2023-02-11T11:03:39;9.50;79.90
52963;DHT22;38827;53.024;6.596;2023-02-11T11:14:36;9.80;78.80
52963;DHT22;38827;53.024;6.596;2023-02-11T11:27:31;10.00;78.10
52963;DHT22;38827;53.024;6.596;2023-02-11T11:30:25;10.00;78.00
52963;DHT22;38827;53.024;6.596;2023-02-11T11:36:29;10.00;78.10
52963;DHT22;38827;53.024;6.596;2023-02-11T11:39:56;10.00;77.90
52963;DHT22;38827;53.024;6.596;2023-02-11T11:43:00;10.00;77.70
52963;DHT22;38827;53.024;6.596;2023-02-11T11:46:09;10.00;77.80
52963;DHT22;38827;53.024;6.596;2023-02-11T11:48:42;10.00;78.10
52963;DHT22;38827;53.024;6.596;2023-02-11T12:12:13;10.00;77.50
52963;DHT22;38827;53.024;6.596;2023-02-11T12:24:18;10.10;77.20
52963;DHT22;38827;53.024;6.596;2023-02-11T13:11:52;11.00;74.30
52963;DHT22;38827;53.024;6.596;2023-02-11T13:32:18;10.90;73.80
52963;DHT22;38827;53.024;6.596;2023-02-11T13:37:54;10.90;74.00
52963;DHT22;38827;53.024;6.596;2023-02-11T13:40:26;10.90;74.40
52963;DHT22;38827;53.024;6.596;2023-02-11T13:42:57;10.90;74.20
52963;DHT22;38827;53.024;6.596;2023-02-11T13:45:42;10.90;74.00
52963;DHT22;38827;53.024;6.596;2023-02-11T13:48:24;10.90;74.00
52963;DHT22;38827;53.024;6.596;2023-02-11T13:50:54;10.80;74.10
52963;DHT22;38827;53.024;6.596;2023-02-11T13:53:21;10.80;74.40
52963;DHT22;38827;53.024;6.596;2023-02-11T13:55:50;10.80;74.60
52963;DHT22;38827;53.024;6.596;2023-02-11T14:12:37;10.50;75.10
52963;DHT22;38827;53.024;6.596;2023-02-11T14:15:20;10.50;75.50
52963;DHT22;38827;53.024;6.596;2023-02-11T14:21:39;10.40;75.60
52963;DHT22;38827;53.024;6.596;2023-02-11T14:35:59;10.30;75.70
52963;DHT22;38827;53.024;6.596;2023-02-11T15:05:33;10.10;76.10
52963;DHT22;38827;53.024;6.596;2023-02-11T15:11:59;10.00;76.10
52963;DHT22;38827;53.024;6.596;2023-02-11T15:15:18;10.00;76.30
52963;DHT22;38827;53.024;6.596;2023-02-11T15:21:10;9.90;76.50
52963;DHT22;38827;53.024;6.596;2023-02-11T15:31:14;9.90;76.70
52963;DHT22;38827;53.024;6.596;2023-02-11T15:34:25;9.90;76.70
52963;DHT22;38827;53.024;6.596;2023-02-11T15:40:28;9.80;76.70
52963;DHT22;38827;53.024;6.596;2023-02-11T15:46:09;9.80;77.00
52963;DHT22;38827;53.024;6.596;2023-02-11T15:49:00;9.80;77.10
52963;DHT22;38827;53.024;6.596;2023-02-11T15:51:53;9.80;77.10
52963;DHT22;38827;53.024;6.596;2023-02-11T15:54:31;9.80;77.10
52963;DHT22;38827;53.024;6.596;2023-02-11T16:00:50;9.80;77.30
52963;DHT22;38827;53.024;6.596;2023-02-11T16:06:29;9.70;77.40
52963;DHT22;38827;53.024;6.596;2023-02-11T16:12:31;9.70;77.40
52963;DHT22;38827;53.024;6.596;2023-02-11T16:14:57;9.70;77.70
52963;DHT22;38827;53.024;6.596;2023-02-11T16:17:25;9.80;77.60
52963;DHT22;38827;53.024;6.596;2023-02-11T16:20:17;9.80;77.60
52963;DHT22;38827;53.024;6.596;2023-02-11T16:22:45;9.80;77.70
52963;DHT22;38827;53.024;6.596;2023-02-11T16:25:18;9.80;77.80
52963;DHT22;38827;53.024;6.596;2023-02-11T16:27:53;9.80;77.80
52963;DHT22;38827;53.024;6.596;2023-02-11T16:30:38;9.80;77.70
52963;DHT22;38827;53.024;6.596;2023-02-11T16:33:04;9.80;77.50
52963;DHT22;38827;53.024;6.596;2023-02-11T16:35:42;9.80;77.70
52963;DHT22;38827;53.024;6.596;2023-02-11T16:38:12;9.80;77.60
52963;DHT22;38827;53.024;6.596;2023-02-11T16:40:49;9.70;77.80
52963;DHT22;38827;53.024;6.596;2023-02-11T16:43:19;9.70;77.70
52963;DHT22;38827;53.024;6.596;2023-02-11T16:45:47;9.60;77.80
52963;DHT22;38827;53.024;6.596;2023-02-11T16:48:35;9.60;77.90
52963;DHT22;38827;53.024;6.596;2023-02-11T16:51:20;9.60;77.80
52963;DHT22;38827;53.024;6.596;2023-02-11T16:53:45;9.60;77.80
52963;DHT22;38827;53.024;6.596;2023-02-11T16:56:14;9.50;78.10
52963;DHT22;38827;53.024;6.596;2023-02-11T16:58:41;9.60;78.10
52963;DHT22;38827;53.024;6.596;2023-02-11T17:01:06;9.50;78.00
52963;DHT22;38827;53.024;6.596;2023-02-11T17:03:33;9.50;78.10
52963;DHT22;38827;53.024;6.596;2023-02-11T17:06:06;9.50;78.20
52963;DHT22;38827;53.024;6.596;2023-02-11T17:08:33;9.40;78.30
52963;DHT22;38827;53.024;6.596;2023-02-11T17:11:01;9.40;78.20
52963;DHT22;38827;53.024;6.596;2023-02-11T17:13:35;9.40;78.20
52963;DHT22;38827;53.024;6.596;2023-02-11T17:16:03;9.40;78.40
52963;DHT22;38827;53.024;6.596;2023-02-11T17:18:29;9.30;78.30
52963;DHT22;38827;53.024;6.596;2023-02-11T17:20:55;9.30;78.40
52963;DHT22;38827;53.024;6.596;2023-02-11T17:23:24;9.30;78.40
52963;DHT22;38827;53.024;6.596;2023-02-11T17:25:56;9.30;78.60
52963;DHT22;38827;53.024;6.596;2023-02-11T17:28:21;9.30;78.60
52963;DHT22;38827;53.024;6.596;2023-02-11T17:30:47;9.20;78.70
52963;DHT22;38827;53.024;6.596;2023-02-11T17:33:13;9.20;78.70
52963;DHT22;38827;53.024;6.596;2023-02-11T17:35:39;9.20;78.90
52963;DHT22;38827;53.024;6.596;2023-02-11T17:38:05;9.10;78.90
52963;DHT22;38827;53.024;6.596;2023-02-11T17:40:30;9.10;78.90
52963;DHT22;38827;53.024;6.596;2023-02-11T17:42:56;9.10;79.10
52963;DHT22;38827;53.024;6.596;2023-02-11T17:45:23;9.00;79.20
52963;DHT22;38827;53.024;6.596;2023-02-11T17:47:51;9.00;79.30
52963;DHT22;38827;53.024;6.596;2023-02-11T17:50:16;9.00;79.30
52963;DHT22;38827;53.024;6.596;2023-02-11T17:52:42;9.00;79.30
52963;DHT22;38827;53.024;6.596;2023-02-11T17:55:10;9.00;79.40
52963;DHT22;38827;53.024;6.596;2023-02-11T17:57:37;9.00;79.40
52963;DHT22;38827;53.024;6.596;2023-02-11T18:00:05;9.00;79.50
52963;DHT22;38827;53.024;6.596;2023-02-11T18:02:36;9.00;79.50
52963;DHT22;38827;53.024;6.596;2023-02-11T18:05:02;8.90;79.60
52963;DHT22;38827;53.024;6.596;2023-02-11T18:07:28;8.90;79.60
52963;DHT22;38827;53.024;6.596;2023-02-11T18:09:54;8.90;79.70
52963;DHT22;38827;53.024;6.596;2023-02-11T18:12:20;8.90;79.80
52963;DHT22;38827;53.024;6.596;2023-02-11T18:14:51;8.80;79.80
52963;DHT22;38827;53.024;6.596;2023-02-11T18:17:19;8.90;79.90
52963;DHT22;38827;53.024;6.596;2023-02-11T18:19:45;8.80;79.90
52963;DHT22;38827;53.024;6.596;2023-02-11T18:22:10;8.80;79.90
52963;DHT22;38827;53.024;6.596;2023-02-11T18:24:36;8.70;80.10
52963;DHT22;38827;53.024;6.596;2023-02-11T18:27:02;8.80;80.10
52963;DHT22;38827;53.024;6.596;2023-02-11T18:29:28;8.70;80.10
52963;DHT22;38827;53.024;6.596;2023-02-11T18:31:57;8.70;80.10
52963;DHT22;38827;53.024;6.596;2023-02-11T18:34:23;8.70;80.20
52963;DHT22;38827;53.024;6.596;2023-02-11T18:36:49;8.60;80.30
52963;DHT22;38827;53.024;6.596;2023-02-11T18:39:16;8.60;80.40
52963;DHT22;38827;53.024;6.596;2023-02-11T18:41:42;8.60;80.40
52963;DHT22;38827;53.024;6.596;2023-02-11T18:44:10;8.50;80.50
52963;DHT22;38827;53.024;6.596;2023-02-11T18:46:36;8.50;80.70
52963;DHT22;38827;53.024;6.596;2023-02-11T18:49:01;8.50;80.60
52963;DHT22;38827;53.024;6.596;2023-02-11T18:51:27;8.40;80.80
52963;DHT22;38827;53.024;6.596;2023-02-11T18:53:56;8.50;80.90
52963;DHT22;38827;53.024;6.596;2023-02-11T18:56:22;8.40;81.00
52963;DHT22;38827;53.024;6.596;2023-02-11T18:58:48;8.50;81.10
52963;DHT22;38827;53.024;6.596;2023-02-11T19:01:21;8.50;81.20
52963;DHT22;38827;53.024;6.596;2023-02-11T19:03:49;8.50;81.20
52963;DHT22;38827;53.024;6.596;2023-02-11T19:06:17;8.50;81.20
52963;DHT22;38827;53.024;6.596;2023-02-11T19:08:44;8.50;81.20
52963;DHT22;38827;53.024;6.596;2023-02-11T19:11:11;8.50;81.10
52963;DHT22;38827;53.024;6.596;2023-02-11T19:13:37;8.50;81.10
52963;DHT22;38827;53.024;6.596;2023-02-11T19:16:06;8.50;81.00
52963;DHT22;38827;53.024;6.596;2023-02-11T19:18:33;8.50;81.10
52963;DHT22;38827;53.024;6.596;2023-02-11T19:21:06;8.50;81.00
52963;DHT22;38827;53.024;6.596;2023-02-11T19:23:36;8.40;81.00
52963;DHT22;38827;53.024;6.596;2023-02-11T19:26:02;8.40;81.10
52963;DHT22;38827;53.024;6.596;2023-02-11T19:28:30;8.30;81.30
52963;DHT22;38827;53.024;6.596;2023-02-11T19:31:05;8.20;81.40
52963;DHT22;38827;53.024;6.596;2023-02-11T19:33:31;8.20;81.40
52963;DHT22;38827;53.024;6.596;2023-02-11T19:36:05;8.10;81.60
52963;DHT22;38827;53.024;6.596;2023-02-11T19:38:33;8.00;81.70
52963;DHT22;38827;53.024;6.596;2023-02-11T19:47:34;7.80;82.10
52963;DHT22;38827;53.024;6.596;2023-02-11T19:49:59;7.70;82.30
52963;DHT22;38827;53.024;6.596;2023-02-11T19:52:54;7.70;82.40
52963;DHT22;38827;53.024;6.596;2023-02-11T19:55:50;7.60;82.60
52963;DHT22;38827;53.024;6.596;2023-02-11T20:05:39;7.50;83.20
52963;DHT22;38827;53.024;6.596;2023-02-11T20:16:01;7.30;83.60
52963;DHT22;38827;53.024;6.596;2023-02-11T20:18:54;7.30;83.60
52963;DHT22;38827;53.024;6.596;2023-02-11T20:21:54;7.20;83.90
52963;DHT22;38827;53.024;6.596;2023-02-11T20:24:26;7.20;83.80
52963;DHT22;38827;53.024;6.596;2023-02-11T20:26:55;7.20;84.00
52963;DHT22;38827;53.024;6.596;2023-02-11T20:37:20;7.10;84.10
52963;DHT22;38827;53.024;6.596;2023-02-11T20:43:45;7.00;84.30
52963;DHT22;38827;53.024;6.596;2023-02-11T20:53:46;6.90;84.70
52963;DHT22;38827;53.024;6.596;2023-02-11T20:59:49;6.80;85.00
52963;DHT22;38827;53.024;6.596;2023-02-11T21:05:49;6.80;85.40
52963;DHT22;38827;53.024;6.596;2023-02-11T21:08:26;6.70;85.20
52963;DHT22;38827;53.024;6.596;2023-02-11T21:11:10;6.70;85.50
52963;DHT22;38827;53.024;6.596;2023-02-11T21:13:38;6.70;85.40
52963;DHT22;38827;53.024;6.596;2023-02-11T21:16:36;6.70;85.50
52963;DHT22;38827;53.024;6.596;2023-02-11T21:19:07;6.70;85.50
52963;DHT22;38827;53.024;6.596;2023-02-11T21:21:51;6.80;85.60
52963;DHT22;38827;53.024;6.596;2023-02-11T21:24:32;6.80;85.60
52963;DHT22;38827;53.024;6.596;2023-02-11T21:26:58;6.90;85.70
52963;DHT22;38827;53.024;6.596;2023-02-11T21:29:23;6.90;85.70
52963;DHT22;38827;53.024;6.596;2023-02-11T21:31:49;6.90;85.50
52963;DHT22;38827;53.024;6.596;2023-02-11T21:34:16;7.00;85.50
52963;DHT22;38827;53.024;6.596;2023-02-11T21:36:57;7.00;85.30
52963;DHT22;38827;53.024;6.596;2023-02-11T21:39:38;7.00;85.20
52963;DHT22;38827;53.024;6.596;2023-02-11T21:42:04;7.10;85.10
52963;DHT22;38827;53.024;6.596;2023-02-11T21:44:39;7.10;85.10
52963;DHT22;38827;53.024;6.596;2023-02-11T21:47:26;7.00;85.00
52963;DHT22;38827;53.024;6.596;2023-02-11T21:49:57;7.10;84.90
52963;DHT22;38827;53.024;6.596;2023-02-11T21:52:29;7.00;84.90
52963;DHT22;38827;53.024;6.596;2023-02-11T21:55:14;7.10;85.00
52963;DHT22;38827;53.024;6.596;2023-02-11T21:57:52;7.10;84.90
52963;DHT22;38827;53.024;6.596;2023-02-11T22:00:29;7.10;84.90
52963;DHT22;38827;53.024;6.596;2023-02-11T22:02:57;7.10;85.00
52963;DHT22;38827;53.024;6.596;2023-02-11T22:05:24;7.10;84.90
52963;DHT22;38827;53.024;6.596;2023-02-11T22:07:51;7.10;84.90
52963;DHT22;38827;53.024;6.596;2023-02-11T22:10:17;7.10;84.90
52963;DHT22;38827;53.024;6.596;2023-02-11T22:12:44;7.10;84.90
52963;DHT22;38827;53.024;6.596;2023-02-11T22:15:15;7.10;84.90
52963;DHT22;38827;53.024;6.596;2023-02-11T22:17:41;7.10;84.90
52963;DHT22;38827;53.024;6.596;2023-02-11T22:20:07;7.10;84.90
52963;DHT22;38827;53.024;6.596;2023-02-11T22:22:34;7.10;84.90
52963;DHT22;38827;53.024;6.596;2023-02-11T22:25:00;7.20;84.80
52963;DHT22;38827;53.024;6.596;2023-02-11T22:27:26;7.20;84.80
52963;DHT22;38827;53.024;6.596;2023-02-11T22:29:52;7.20;84.80
52963;DHT22;38827;53.024;6.596;2023-02-11T22:32:17;7.20;84.90
52963;DHT22;38827;53.024;6.596;2023-02-11T22:34:43;7.20;84.90
52963;DHT22;38827;53.024;6.596;2023-02-11T22:37:09;7.20;84.80
52963;DHT22;38827;53.024;6.596;2023-02-11T22:39:35;7.20;84.70
52963;DHT22;38827;53.024;6.596;2023-02-11T22:42:01;7.20;84.80
52963;DHT22;38827;53.024;6.596;2023-02-11T22:44:29;7.10;84.80
52963;DHT22;38827;53.024;6.596;2023-02-11T22:46:54;7.20;84.80
52963;DHT22;38827;53.024;6.596;2023-02-11T22:49:21;7.20;84.80
52963;DHT22;38827;53.024;6.596;2023-02-11T22:51:54;7.10;84.80
52963;DHT22;38827;53.024;6.596;2023-02-11T22:54:20;7.10;84.80
52963;DHT22;38827;53.024;6.596;2023-02-11T22:56:49;7.10;84.90
52963;DHT22;38827;53.024;6.596;2023-02-11T22:59:15;7.10;84.80
52963;DHT22;38827;53.024;6.596;2023-02-11T23:02:06;7.10;85.00
52963;DHT22;38827;53.024;6.596;2023-02-11T23:04:35;7.10;84.80
52963;DHT22;38827;53.024;6.596;2023-02-11T23:07:32;7.10;85.10
52963;DHT22;38827;53.024;6.596;2023-02-11T23:10:16;7.10;85.00
52963;DHT22;38827;53.024;6.596;2023-02-11T23:16:35;7.10;85.00
52963;DHT22;38827;53.024;6.596;2023-02-11T23:19:21;7.00;85.10
52963;DHT22;38827;53.024;6.596;2023-02-11T23:22:08;7.00;84.90
52963;DHT22;38827;53.024;6.596;2023-02-11T23:24:48;7.00;85.10
52963;DHT22;38827;53.024;6.596;2023-02-11T23:27:14;7.00;85.10
52963;DHT22;38827;53.024;6.596;2023-02-11T23:29:55;7.00;85.20
52963;DHT22;38827;53.024;6.596;2023-02-11T23:36:01;7.00;85.10
52963;DHT22;38827;53.024;6.596;2023-02-11T23:38:42;7.00;85.10
52963;DHT22;38827;53.024;6.596;2023-02-11T23:41:20;7.00;85.40
52963;DHT22;38827;53.024;6.596;2023-02-11T23:47:36;7.00;85.50
52963;DHT22;38827;53.024;6.596;2023-02-11T23:57:42;6.90;85.40
